Time;durP1;ratioP1;P1;durP2;ratioP2;P2;SDS_P1;SDS_P2;PMS_P1;PMS_P2;Temp;Humidity;BMP_temperature;BMP_pressure;BME280_temperature;BME280_humidity;BME280_pressure;Samples;Min_cycle;Max_cycle;Signal;HPM_P1;HPM_P2
2022/06/08 00:01:22;;;;;;;2.85;1.90;;;;;;;13.46;96.32;98939.38;5068177;28;20043;-52
2022/06/08 00:03:55;;;;;;;4.88;2.00;;;;;;;13.58;95.24;98939.94;5070817;28;20028;-54
2022/06/08 00:06:20;;;;;;;5.90;2.10;;;;;;;13.55;95.81;98940.47;5042005;28;20017;-55
2022/06/08 00:08:46;;;;;;;8.88;2.35;;;;;;;13.54;96.22;98938.84;5067463;28;20082;-54
2022/06/08 00:11:11;;;;;;;4.88;2.30;;;;;;;13.57;97.46;98938.31;5070050;28;20111;-54
2022/06/08 00:13:37;;;;;;;8.15;2.40;;;;;;;13.53;98.33;98931.06;5070003;28;20458;-53
2022/06/08 00:16:03;;;;;;;4.70;2.30;;;;;;;13.61;97.84;98937.78;5070215;28;20037;-53
2022/06/08 00:18:28;;;;;;;6.22;2.30;;;;;;;13.61;98.24;98932.41;5070271;28;20123;-54
2022/06/08 00:20:54;;;;;;;5.30;2.30;;;;;;;13.70;97.77;98936.94;5069763;28;20036;-51
2022/06/08 00:23:20;;;;;;;3.75;2.22;;;;;;;13.67;98.13;98926.72;5070942;28;20025;-54
2022/06/08 00:25:45;;;;;;;3.90;2.45;;;;;;;13.79;98.06;98921.06;5068143;28;20024;-53
2022/06/08 00:28:11;;;;;;;3.70;2.10;;;;;;;13.75;97.80;98922.69;5057583;28;20082;-53
2022/06/08 00:30:36;;;;;;;4.20;2.20;;;;;;;13.61;99.65;98916.25;5035785;28;20433;-51
2022/06/08 00:33:02;;;;;;;3.90;2.10;;;;;;;13.62;100.00;98912.47;5069775;28;20020;-53
2022/06/08 00:35:27;;;;;;;4.38;2.30;;;;;;;13.69;99.80;98899.53;5068803;28;20047;-54
2022/06/08 00:37:52;;;;;;;2.75;2.00;;;;;;;13.76;98.31;98902.75;5068892;28;20025;-53
2022/06/08 00:40:20;;;;;;;3.38;2.20;;;;;;;13.76;97.35;98902.75;5069885;28;20499;-52
2022/06/08 00:42:45;;;;;;;2.97;2.10;;;;;;;13.82;96.57;98898.97;5063590;28;20064;-51
2022/06/08 00:45:15;;;;;;;4.50;2.13;;;;;;;13.87;95.53;98904.34;5069144;28;21036;-54
2022/06/08 00:47:50;;;;;;;6.00;2.30;;;;;;;13.92;95.35;98900.84;5025233;28;20562;-55
2022/06/08 00:50:25;;;;;;;3.22;1.98;;;;;;;13.95;94.99;98898.44;5039014;28;20530;-55
2022/06/08 00:52:51;;;;;;;5.72;2.10;;;;;;;13.95;95.13;98903.81;5051862;28;20044;-54
2022/06/08 00:55:17;;;;;;;4.93;2.20;;;;;;;13.98;94.62;98903.25;5070368;28;20395;-55
2022/06/08 00:57:49;;;;;;;4.70;2.20;;;;;;;13.92;94.62;98904.34;5044734;28;20063;-54
2022/06/08 01:00:18;;;;;;;3.55;2.08;;;;;;;14.00;94.77;98903.81;5030344;28;20086;-54
2022/06/08 01:02:43;;;;;;;3.85;2.13;;;;;;;14.02;94.06;98904.31;5069300;28;20047;-55
2022/06/08 01:05:15;;;;;;;5.07;2.10;;;;;;;14.12;93.99;98900.00;5067546;28;20479;-54
2022/06/08 01:07:41;;;;;;;6.03;2.03;;;;;;;14.10;94.45;98899.47;5064712;28;20044;-54
2022/06/08 01:10:09;;;;;;;2.80;2.10;;;;;;;14.10;94.46;98912.94;5047172;28;20123;-54
2022/06/08 01:12:34;;;;;;;3.47;2.00;;;;;;;14.10;95.43;98907.53;5069183;28;20119;-53
2022/06/08 01:15:00;;;;;;;3.28;1.88;;;;;;;14.08;96.55;98909.69;5050339;28;20471;-52
2022/06/08 01:17:25;;;;;;;3.13;2.03;;;;;;;14.07;96.85;98906.19;5055864;28;20036;-51
2022/06/08 01:19:50;;;;;;;3.38;1.90;;;;;;;14.01;98.11;98899.22;5041482;28;20043;-51
2022/06/08 01:22:17;;;;;;;7.75;2.33;;;;;;;13.97;100.00;98900.84;5058138;28;20024;-53
2022/06/08 01:24:45;;;;;;;4.07;2.00;;;;;;;13.99;100.00;98888.69;5069343;28;20032;-54
2022/06/08 01:27:39;;;;;;;6.55;2.47;;;;;;;13.91;100.00;98889.28;5068246;28;20458;-53
2022/06/08 01:30:21;;;;;;;3.10;2.10;;;;;;;13.75;100.00;98879.59;5051707;28;20090;-53
2022/06/08 01:33:14;;;;;;;3.63;2.50;;;;;;;13.71;100.00;98870.44;5057413;28;20146;-53
2022/06/08 01:36:11;;;;;;;3.80;2.42;;;;;;;13.62;100.00;98869.38;5068278;28;20119;-52
2022/06/08 01:38:46;;;;;;;9.18;2.55;;;;;;;13.68;100.00;98869.13;5061349;28;20507;-54
2022/06/08 01:41:30;;;;;;;5.82;2.80;;;;;;;13.61;100.00;98857.00;5046938;28;20039;-54
2022/06/08 01:44:27;;;;;;;6.55;2.60;;;;;;;13.60;100.00;98853.47;5064192;28;20024;-53
2022/06/08 01:46:53;;;;;;;4.07;2.60;;;;;;;13.66;100.00;98854.31;5068578;28;20032;-51
2022/06/08 01:49:22;;;;;;;5.85;3.00;;;;;;;13.67;100.00;98847.81;5069123;28;20032;-54
2022/06/08 01:52:12;;;;;;;6.63;3.50;;;;;;;13.63;100.00;98855.66;5030139;28;20073;-54
2022/06/08 01:54:58;;;;;;;5.20;3.00;;;;;;;13.66;100.00;98844.34;5041654;28;20277;-52
2022/06/08 01:57:36;;;;;;;4.07;2.78;;;;;;;13.57;100.00;98845.94;5063689;28;20035;-52
2022/06/08 02:00:42;;;;;;;8.90;3.22;;;;;;;13.57;100.00;98844.06;5068273;28;20051;-52
2022/06/08 02:03:19;;;;;;;4.15;2.80;;;;;;;13.56;100.00;98842.47;5010727;28;20040;-53
2022/06/08 02:05:59;;;;;;;5.20;3.20;;;;;;;13.42;100.00;98837.91;5062821;28;20028;-53
2022/06/08 02:08:44;;;;;;;5.30;3.25;;;;;;;13.33;100.00;98830.38;5067451;28;20071;-54
2022/06/08 02:11:49;;;;;;;7.25;3.25;;;;;;;13.45;100.00;98843.53;5064543;28;20037;-53
2022/06/08 02:14:18;;;;;;;7.38;3.40;;;;;;;13.41;100.00;98834.41;5066525;28;20127;-54
2022/06/08 02:16:54;;;;;;;6.32;3.30;;;;;;;13.34;100.00;98834.66;5049646;28;20052;-54
2022/06/08 02:19:30;;;;;;;8.18;4.30;;;;;;;13.35;100.00;98830.09;5066208;28;20111;-53
2022/06/08 02:22:05;;;;;;;4.80;3.67;;;;;;;13.28;100.00;98832.22;5017886;28;20487;-54
2022/06/08 02:24:36;;;;;;;7.32;4.28;;;;;;;13.23;100.00;98826.81;5035200;28;20056;-54
2022/06/08 02:27:14;;;;;;;7.15;4.00;;;;;;;13.20;100.00;98819.28;5022326;28;20505;-54
2022/06/08 02:29:51;;;;;;;6.47;4.57;;;;;;;13.11;100.00;98817.16;5035723;28;20036;-53
2022/06/08 02:35:12;;;;;;;6.30;4.20;;;;;;;13.13;100.00;98820.38;5037947;28;20044;-54
2022/06/08 02:37:38;;;;;;;9.18;4.80;;;;;;;13.16;100.00;98808.28;5048998;28;20435;-53
2022/06/08 02:40:12;;;;;;;11.05;4.40;;;;;;;13.10;100.00;98810.16;5044782;28;20165;-53
2022/06/08 02:42:46;;;;;;;5.10;3.83;;;;;;;13.11;100.00;98809.06;5046444;28;20427;-54
2022/06/08 02:45:15;;;;;;;8.30;4.70;;;;;;;13.09;100.00;98808.53;5062278;28;20058;-54
2022/06/08 02:47:41;;;;;;;6.00;4.23;;;;;;;13.14;100.00;98816.59;5050866;28;20034;-54
2022/06/08 02:50:09;;;;;;;7.35;3.75;;;;;;;13.13;100.00;98812.31;5040727;28;20289;-54
2022/06/08 02:52:35;;;;;;;7.18;3.90;;;;;;;13.05;100.00;98818.22;5070707;28;20033;-53
2022/06/08 02:55:01;;;;;;;8.75;3.85;;;;;;;13.05;100.00;98812.81;5054446;28;20032;-54
2022/06/08 02:57:37;;;;;;;10.77;4.18;;;;;;;12.98;100.00;98808.78;5037415;28;20082;-54
2022/06/08 03:00:06;;;;;;;7.47;4.38;;;;;;;12.98;100.00;98806.94;5055772;28;20463;-53
2022/06/08 03:02:34;;;;;;;7.78;3.90;;;;;;;12.97;100.00;98812.56;5054258;28;20037;-52
2022/06/08 03:05:15;;;;;;;13.52;4.68;;;;;;;12.99;100.00;98803.16;5071968;28;20550;-52
2022/06/08 03:07:45;;;;;;;6.88;4.22;;;;;;;13.00;100.00;98804.75;5033196;28;20136;-54
2022/06/08 03:10:12;;;;;;;7.63;4.60;;;;;;;13.06;100.00;98805.59;5030695;28;20052;-54
2022/06/08 03:12:39;;;;;;;6.30;4.07;;;;;;;13.08;100.00;98796.16;5021244;28;20036;-54
2022/06/08 03:15:09;;;;;;;8.80;4.00;;;;;;;13.10;100.00;98799.41;5070948;28;20032;-51
2022/06/08 03:17:35;;;;;;;6.93;3.97;;;;;;;13.13;100.00;98801.56;5047067;28;20036;-53
2022/06/08 03:20:01;;;;;;;7.60;3.45;;;;;;;13.14;100.00;98795.06;5043518;28;20052;-53
2022/06/08 03:22:26;;;;;;;6.60;3.70;;;;;;;13.15;100.00;98802.09;5070298;28;20028;-54
2022/06/08 03:24:52;;;;;;;6.32;3.60;;;;;;;13.14;100.00;98800.47;5071491;28;20526;-53
2022/06/08 03:27:18;;;;;;;5.20;3.40;;;;;;;13.17;100.00;98801.81;5071173;28;20051;-54
2022/06/08 03:29:43;;;;;;;5.10;3.47;;;;;;;13.17;100.00;98797.22;5071131;28;20036;-54
2022/06/08 03:32:09;;;;;;;5.63;3.35;;;;;;;13.19;100.00;98794.28;5071517;28;20051;-52
2022/06/08 03:34:35;;;;;;;5.68;3.60;;;;;;;13.13;100.00;98796.16;5070339;28;20033;-53
2022/06/08 03:37:00;;;;;;;4.25;3.33;;;;;;;13.14;100.00;98792.38;5065150;28;20424;-54
2022/06/08 03:39:26;;;;;;;4.28;3.00;;;;;;;13.21;100.00;98789.44;5054957;28;20025;-54
2022/06/08 03:41:51;;;;;;;7.05;3.30;;;;;;;13.17;100.00;98786.47;5071085;28;20033;-52
2022/06/08 03:44:16;;;;;;;5.85;3.10;;;;;;;13.32;100.00;98790.25;5071134;28;20033;-54
2022/06/08 03:46:59;;;;;;;4.53;2.63;;;;;;;13.44;100.00;98793.47;5070027;28;20028;-53
2022/06/08 03:49:25;;;;;;;5.03;2.85;;;;;;;13.66;100.00;98790.47;5044990;28;20056;-53
2022/06/08 03:51:50;;;;;;;9.35;2.75;;;;;;;14.30;100.00;98788.88;5050435;28;20459;-53
2022/06/08 03:54:18;;;;;;;4.90;2.55;;;;;;;15.16;92.33;98794.81;5037255;28;20108;-52
2022/06/08 03:56:49;;;;;;;5.80;2.40;;;;;;;14.45;95.91;98805.00;5020741;28;20029;-53
2022/06/08 03:59:14;;;;;;;5.68;2.60;;;;;;;14.21;98.65;98791.34;5029196;28;20033;-53
2022/06/08 04:01:40;;;;;;;7.00;2.30;;;;;;;13.90;100.00;98801.44;5040237;28;20021;-53
2022/06/08 04:04:05;;;;;;;3.30;2.20;;;;;;;13.77;100.00;98800.13;5047054;28;20028;-53
2022/06/08 04:06:30;;;;;;;4.85;2.40;;;;;;;13.66;100.00;98800.44;5070482;28;20033;-54
2022/06/08 04:08:56;;;;;;;5.43;2.65;;;;;;;13.73;100.00;98798.28;5038670;28;20121;-53
2022/06/08 04:11:21;;;;;;;5.07;2.60;;;;;;;13.75;100.00;98798.78;5067348;28;20050;-54
2022/06/08 04:13:47;;;;;;;3.88;2.08;;;;;;;13.73;100.00;98798.28;5064434;28;20039;-54
2022/06/08 04:16:12;;;;;;;5.18;2.30;;;;;;;13.55;100.00;98795.09;5070584;28;20023;-52
2022/06/08 04:18:38;;;;;;;4.68;2.30;;;;;;;13.49;100.00;98801.53;5051142;28;20031;-53
2022/06/08 04:21:04;;;;;;;3.40;2.40;;;;;;;13.55;100.00;98795.09;5069745;28;20034;-54
2022/06/08 04:23:31;;;;;;;11.80;2.70;;;;;;;13.50;100.00;98795.06;5068657;28;20039;-54
2022/06/08 04:25:57;;;;;;;5.28;2.40;;;;;;;13.43;100.00;98791.88;5061209;28;20545;-54
2022/06/08 04:28:22;;;;;;;3.13;2.00;;;;;;;13.51;100.00;98799.38;5063421;28;20020;-56
2022/06/08 04:30:48;;;;;;;6.80;2.28;;;;;;;13.51;100.00;98794.00;5068789;28;20066;-54
2022/06/08 04:33:14;;;;;;;4.25;2.38;;;;;;;13.46;100.00;98790.53;5068177;28;20059;-55
2022/06/08 04:35:39;;;;;;;4.25;2.20;;;;;;;13.47;100.00;98798.31;5070044;28;20112;-55
2022/06/08 04:38:06;;;;;;;3.90;2.20;;;;;;;13.44;100.00;98790.78;5068957;28;20016;-52
2022/06/08 04:40:32;;;;;;;4.57;2.33;;;;;;;13.71;100.00;98795.84;5050288;28;20032;-54
2022/06/08 04:42:57;;;;;;;3.15;2.20;;;;;;;13.93;100.00;98790.13;5068663;28;20048;-54
2022/06/08 04:45:22;;;;;;;3.55;2.20;;;;;;;14.23;100.00;98783.00;5067292;28;20482;-54
2022/06/08 04:47:48;;;;;;;3.10;1.98;;;;;;;14.67;97.64;98783.03;5068718;28;20032;-55
2022/06/08 04:50:13;;;;;;;6.63;2.10;;;;;;;16.02;94.95;98786.94;5069079;28;20033;-59
2022/06/08 04:52:39;;;;;;;6.55;1.90;;;;;;;17.51;80.27;98790.16;5041895;28;20024;-55
2022/06/08 04:55:06;;;;;;;3.85;1.73;;;;;;;16.58;84.17;98777.28;5067455;28;20732;-54
2022/06/08 04:57:34;;;;;;;4.80;1.90;;;;;;;17.05;84.51;98783.63;5068263;28;20029;-56
2022/06/08 04:59:59;;;;;;;3.58;1.60;;;;;;;18.67;74.28;98780.78;5067888;28;20357;-54
2022/06/08 05:02:48;;;;;;;2.05;1.70;;;;;;;17.51;79.70;98779.34;5065893;28;20127;-54
2022/06/08 05:05:19;;;;;;;3.20;1.70;;;;;;;17.26;79.88;98778.69;5056679;28;20021;-55
2022/06/08 05:07:45;;;;;;;6.97;1.60;;;;;;;16.49;83.16;98769.00;5045475;28;20037;-53
2022/06/08 05:10:11;;;;;;;5.97;1.80;;;;;;;19.45;72.30;98775.09;5066036;28;20039;-53
2022/06/08 05:12:36;;;;;;;4.03;1.50;;;;;;;21.17;64.86;98772.25;5066510;28;20404;-53
2022/06/08 05:15:06;;;;;;;6.88;2.30;;;;;;;21.78;61.87;98769.34;5069624;28;20032;-54
2022/06/08 05:17:32;;;;;;;2.08;1.40;;;;;;;17.66;74.90;98770.91;5063796;28;20029;-53
2022/06/08 05:19:57;;;;;;;2.65;1.60;;;;;;;17.49;78.17;98771.50;5066554;28;20039;-53
2022/06/08 05:22:23;;;;;;;2.67;1.60;;;;;;;17.39;79.06;98772.47;5068379;28;20071;-51
2022/06/08 05:24:49;;;;;;;2.88;1.50;;;;;;;18.40;76.76;98762.66;5068960;28;20036;-53
2022/06/08 05:27:14;;;;;;;5.38;1.70;;;;;;;17.43;77.87;98768.06;5063230;28;20028;-54
2022/06/08 05:29:40;;;;;;;4.13;1.73;;;;;;;17.89;76.97;98759.09;5068004;28;20044;-54
2022/06/08 05:32:06;;;;;;;5.05;1.60;;;;;;;17.23;78.77;98765.75;5068377;28;20020;-53
2022/06/08 05:34:31;;;;;;;3.15;1.67;;;;;;;17.20;80.14;98769.03;5068521;28;20116;-53
2022/06/08 05:36:57;;;;;;;4.20;1.70;;;;;;;17.29;80.19;98764.53;5067339;28;20027;-54
2022/06/08 05:39:22;;;;;;;4.32;1.75;;;;;;;16.87;82.01;98760.91;5066086;28;20036;-53
2022/06/08 05:41:48;;;;;;;2.92;1.77;;;;;;;17.00;82.45;98760.16;5068568;28;20479;-54
2022/06/08 05:44:15;;;;;;;5.28;2.03;;;;;;;16.48;84.64;98753.91;5068575;28;20777;-53
2022/06/08 05:46:40;;;;;;;4.10;1.75;;;;;;;16.60;82.62;98756.97;5065326;28;20025;-55
2022/06/08 05:49:06;;;;;;;4.28;1.90;;;;;;;16.65;82.96;98757.97;5062872;28;20029;-53
2022/06/08 05:51:31;;;;;;;3.00;1.60;;;;;;;18.34;75.42;98753.00;5060920;28;20383;-54
2022/06/08 05:53:56;;;;;;;4.35;1.60;;;;;;;17.88;79.29;98762.91;5059359;28;20032;-53
2022/06/08 05:56:22;;;;;;;2.92;1.60;;;;;;;18.89;71.75;98754.75;5070181;28;20106;-54
2022/06/08 05:58:48;;;;;;;3.53;1.50;;;;;;;17.36;78.61;98756.81;5067855;28;20040;-54
2022/06/08 06:01:13;;;;;;;3.65;1.80;;;;;;;17.82;77.58;98753.28;5068029;28;20036;-55
2022/06/08 06:03:39;;;;;;;3.80;1.50;;;;;;;20.46;69.01;98754.28;5068571;28;20302;-54
2022/06/08 06:06:11;;;;;;;2.33;1.30;;;;;;;21.76;63.07;98747.03;5067908;28;20036;-57
2022/06/08 06:08:41;;;;;;;3.53;1.40;;;;;;;22.42;58.68;98741.06;5053428;28;20102;-54
2022/06/08 06:11:13;;;;;;;3.30;1.30;;;;;;;24.52;53.28;98735.63;5066955;28;20025;-59
2022/06/08 06:13:53;;;;;;;4.15;1.40;;;;;;;24.49;53.62;98732.78;5034146;28;20043;-56
2022/06/08 06:16:19;;;;;;;4.05;1.65;;;;;;;23.85;54.07;98737.84;5066078;28;20501;-56
2022/06/08 06:18:44;;;;;;;4.55;1.60;;;;;;;23.45;55.47;98730.28;5063525;28;20033;-55
2022/06/08 06:21:25;;;;;;;4.65;1.50;;;;;;;21.98;60.12;98727.66;5066238;28;20528;-55
2022/06/08 06:23:54;;;;;;;2.88;1.52;;;;;;;22.34;60.42;98726.34;5067474;28;20111;-55
2022/06/08 06:26:20;;;;;;;3.20;1.40;;;;;;;21.94;59.71;98729.47;5062993;28;20110;-54
2022/06/08 06:28:45;;;;;;;4.07;1.60;;;;;;;23.14;56.50;98719.88;5063946;28;20028;-55
2022/06/08 06:31:25;;;;;;;4.95;1.52;;;;;;;23.29;56.76;98726.63;5066113;28;20032;-56
2022/06/08 06:33:50;;;;;;;4.75;1.50;;;;;;;24.19;53.62;98729.50;5046213;28;20043;-55
2022/06/08 06:36:16;;;;;;;3.83;1.65;;;;;;;21.59;61.61;98725.31;5062062;28;20033;-54
2022/06/08 06:38:41;;;;;;;5.00;1.40;;;;;;;21.72;59.18;98724.28;5062214;28;20037;-56
2022/06/08 06:41:07;;;;;;;7.43;1.70;;;;;;;22.11;58.71;98723.09;5065120;28;20387;-55
2022/06/08 06:43:33;;;;;;;6.30;2.05;;;;;;;22.42;58.75;98721.97;5060747;28;20101;-54
2022/06/08 06:45:59;;;;;;;7.32;1.85;;;;;;;21.81;59.50;98713.31;5059887;28;20024;-55
2022/06/08 06:48:25;;;;;;;8.23;2.15;;;;;;;21.92;59.06;98717.28;5035822;28;20390;-54
2022/06/08 06:50:51;;;;;;;4.80;1.60;;;;;;;21.47;60.80;98715.09;5061093;28;20159;-54
2022/06/08 06:53:17;;;;;;;5.13;2.10;;;;;;;21.32;61.66;98719.13;5066049;28;20112;-56
2022/06/08 06:55:43;;;;;;;3.28;1.67;;;;;;;22.40;58.64;98718.75;5066023;28;20037;-57
2022/06/08 06:58:09;;;;;;;2.67;1.30;;;;;;;20.31;63.42;98715.88;5066418;28;20028;-56
2022/06/08 07:00:34;;;;;;;4.60;1.70;;;;;;;22.26;59.63;98715.47;5066457;28;20028;-55
2022/06/08 07:03:00;;;;;;;8.48;1.95;;;;;;;19.66;66.13;98725.63;5063209;28;20021;-55
2022/06/08 07:05:34;;;;;;;6.05;2.00;;;;;;;20.66;63.09;98722.94;5067995;28;20032;-55
2022/06/08 07:08:00;;;;;;;9.10;2.30;;;;;;;20.50;64.31;98716.34;5065349;28;20098;-56
2022/06/08 07:10:25;;;;;;;8.48;2.80;;;;;;;20.12;66.58;98716.16;5061550;28;20028;-55
2022/06/08 07:12:51;;;;;;;5.63;1.50;;;;;;;20.04;66.26;98710.41;5049284;28;20028;-54
2022/06/08 07:15:18;;;;;;;6.18;1.95;;;;;;;19.61;67.79;98711.03;5051495;28;20410;-55
2022/06/08 07:17:44;;;;;;;6.70;2.10;;;;;;;20.09;64.72;98706.69;5065666;28;20462;-56
2022/06/08 07:20:11;;;;;;;7.88;2.10;;;;;;;20.20;66.43;98702.56;5066809;28;20055;-55
2022/06/08 07:22:36;;;;;;;6.18;1.80;;;;;;;19.87;66.93;98710.38;5066254;28;20033;-56
2022/06/08 07:25:03;;;;;;;15.00;2.10;;;;;;;19.35;68.13;98702.78;5067372;28;20429;-56
2022/06/08 07:27:28;;;;;;;8.15;1.80;;;;;;;19.68;68.34;98697.03;5068096;28;20102;-57
2022/06/08 07:29:55;;;;;;;5.72;1.98;;;;;;;19.48;68.20;98695.66;5067145;28;20454;-55
2022/06/08 07:32:20;;;;;;;3.63;1.75;;;;;;;20.69;63.39;98691.53;5066140;28;20443;-55
2022/06/08 07:34:46;;;;;;;4.43;1.63;;;;;;;20.17;65.52;98686.09;5068272;28;20127;-54
2022/06/08 07:37:11;;;;;;;3.95;1.90;;;;;;;20.55;62.43;98696.38;5070764;28;20051;-55
2022/06/08 07:39:37;;;;;;;6.72;2.00;;;;;;;20.80;61.70;98679.19;5070379;28;20415;-54
2022/06/08 07:42:03;;;;;;;5.43;1.70;;;;;;;20.72;62.14;98673.75;5061079;28;20044;-55
2022/06/08 07:44:28;;;;;;;7.63;1.75;;;;;;;20.81;61.98;98678.06;5053546;28;20028;-55
2022/06/08 07:46:54;;;;;;;8.82;2.08;;;;;;;20.28;63.38;98681.94;5070006;28;20028;-55
2022/06/08 07:52:05;;;;;;;7.35;1.98;;;;;;;22.07;59.22;98681.25;5069854;28;20421;-55
2022/06/08 07:54:31;;;;;;;5.40;1.80;;;;;;;21.22;61.56;98671.25;5069920;28;20024;-55
2022/06/08 07:56:57;;;;;;;4.68;1.90;;;;;;;21.69;58.91;98671.22;5069898;28;20036;-55
2022/06/08 07:59:24;;;;;;;4.82;1.85;;;;;;;20.74;62.25;98672.31;5070769;28;20020;-55
2022/06/08 08:01:49;;;;;;;7.25;1.75;;;;;;;24.43;52.36;98679.34;5071931;28;20016;-56
2022/06/08 08:04:15;;;;;;;8.27;2.00;;;;;;;22.89;55.36;98678.00;5070114;28;20032;-54
2022/06/08 08:06:40;;;;;;;9.18;2.17;;;;;;;20.98;60.50;98673.72;5069994;28;20107;-55
2022/06/08 08:09:09;;;;;;;7.47;1.77;;;;;;;21.90;57.14;98668.50;5069395;28;20044;-55
2022/06/08 08:11:35;;;;;;;7.35;2.17;;;;;;;24.43;50.02;98658.22;5069943;28;20035;-55
2022/06/08 08:14:00;;;;;;;7.15;1.90;;;;;;;23.40;53.60;98666.81;5062656;28;20032;-54
2022/06/08 08:16:26;;;;;;;5.13;1.60;;;;;;;21.78;57.96;98664.91;5070920;28;20028;-56
2022/06/08 08:18:51;;;;;;;7.03;1.83;;;;;;;21.49;57.03;98671.94;5070140;28;20024;-54
2022/06/08 08:21:17;;;;;;;6.30;1.70;;;;;;;23.27;54.55;98655.09;5070388;28;20028;-54
2022/06/08 08:23:42;;;;;;;5.70;1.88;;;;;;;23.82;52.46;98655.66;5069791;28;20020;-54
2022/06/08 08:26:07;;;;;;;8.77;1.65;;;;;;;22.69;54.94;98648.78;5056985;28;20025;-53
2022/06/08 08:28:33;;;;;;;6.97;1.88;;;;;;;24.66;49.99;98639.34;5069767;28;20027;-54
2022/06/08 08:30:58;;;;;;;4.25;1.40;;;;;;;22.53;53.88;98641.22;5070362;28;20039;-54
2022/06/08 08:33:24;;;;;;;5.57;1.70;;;;;;;24.63;49.42;98645.50;5070286;28;20028;-54
2022/06/08 08:35:50;;;;;;;7.88;1.90;;;;;;;25.14;48.11;98631.97;5070017;28;20383;-54
2022/06/08 08:38:16;;;;;;;7.43;1.80;;;;;;;26.26;45.98;98629.84;5068787;28;20025;-54
2022/06/08 08:40:49;;;;;;;6.00;1.73;;;;;;;25.51;46.80;98619.91;5069006;28;20052;-54
2022/06/08 08:43:21;;;;;;;4.55;1.50;;;;;;;26.16;45.66;98608.41;5067028;28;20020;-54
2022/06/08 08:45:59;;;;;;;5.82;1.88;;;;;;;25.69;45.96;98620.34;5017883;28;20074;-54
2022/06/08 08:48:27;;;;;;;4.77;1.83;;;;;;;25.15;46.63;98613.56;5052709;28;20033;-54
2022/06/08 08:51:06;;;;;;;5.97;1.80;;;;;;;23.07;49.00;98617.72;5066648;28;20031;-54
2022/06/08 08:54:04;;;;;;;4.28;1.50;;;;;;;24.07;49.78;98607.16;5045934;28;20042;-55
2022/06/08 08:56:33;;;;;;;4.63;1.40;;;;;;;24.04;48.96;98607.84;5021610;28;20047;-54
2022/06/08 08:58:58;;;;;;;7.18;1.85;;;;;;;24.13;49.43;98605.75;5048712;28;20045;-56
2022/06/08 09:01:27;;;;;;;5.55;1.65;;;;;;;25.55;46.56;98596.91;5069387;28;20106;-54
2022/06/08 09:04:04;;;;;;;5.97;1.80;;;;;;;25.33;47.23;98595.59;5068835;28;20035;-53
2022/06/08 09:06:31;;;;;;;6.85;1.70;;;;;;;26.03;44.13;98592.09;5031337;28;20509;-54
2022/06/08 09:09:02;;;;;;;6.40;1.60;;;;;;;25.53;46.29;98581.94;5067542;28;20424;-54
2022/06/08 09:11:31;;;;;;;5.75;1.65;;;;;;;23.30;50.99;98594.25;5059783;28;20024;-54
2022/06/08 09:14:04;;;;;;;7.07;1.80;;;;;;;22.28;53.64;98590.41;5046333;28;20514;-54
2022/06/08 09:16:39;;;;;;;7.80;1.90;;;;;;;21.50;55.79;98586.31;5043493;28;20116;-54
2022/06/08 09:19:29;;;;;;;7.38;2.28;;;;;;;20.11;58.91;98589.44;5068451;28;20029;-54
2022/06/08 09:21:54;;;;;;;5.75;1.60;;;;;;;20.26;58.26;98586.22;5065794;28;20028;-54
2022/06/08 09:24:57;;;;;;;4.93;1.63;;;;;;;21.04;57.62;98579.78;5067144;28;20047;-54
2022/06/08 09:27:29;;;;;;;7.50;2.03;;;;;;;20.20;58.31;98571.97;5065434;28;20024;-54
2022/06/08 09:30:01;;;;;;;5.38;1.70;;;;;;;20.71;58.73;98574.16;5045832;28;20036;-53
2022/06/08 09:32:46;;;;;;;5.10;1.50;;;;;;;21.69;55.85;98570.31;5062730;28;20078;-54
2022/06/08 09:35:31;;;;;;;7.57;1.70;;;;;;;20.75;57.27;98559.56;5060622;28;20038;-54
2022/06/08 09:38:13;;;;;;;10.20;2.10;;;;;;;20.83;57.82;98561.44;5043106;28;20494;-53
2022/06/08 09:40:47;;;;;;;7.53;1.88;;;;;;;20.21;60.51;98556.44;5045359;28;20025;-53
2022/06/08 09:43:48;;;;;;;6.18;2.22;;;;;;;20.29;59.90;98561.06;5051184;28;20029;-54
2022/06/08 09:46:20;;;;;;;8.48;2.03;;;;;;;20.10;61.18;98556.00;5066779;28;20024;-54
2022/06/08 09:52:04;;;;;;;9.07;2.10;;;;;;;19.74;62.11;98561.75;5068310;28;20147;-55
2022/06/08 09:54:54;;;;;;;11.40;2.20;;;;;;;19.72;62.49;98558.53;5064785;28;20451;-53
2022/06/08 09:57:40;;;;;;;9.45;2.00;;;;;;;19.49;64.15;98564.06;5065309;28;20430;-56
2022/06/08 10:00:08;;;;;;;6.13;1.90;;;;;;;19.25;64.91;98563.72;5067147;28;20036;-54
2022/06/08 10:02:40;;;;;;;9.27;2.10;;;;;;;19.06;66.85;98567.50;5066870;28;20028;-56
2022/06/08 10:05:41;;;;;;;7.13;3.30;;;;;;;18.92;66.70;98555.94;5064413;28;20029;-56
2022/06/08 10:08:22;;;;;;;6.75;2.20;;;;;;;18.58;67.95;98549.22;5038893;28;20068;-55
2022/06/08 10:11:34;;;;;;;5.70;1.85;;;;;;;18.79;68.58;98552.22;5051219;28;20044;-56
2022/06/08 10:13:52;;;;;;;10.48;2.58;;;;;;;18.74;69.06;98555.81;5061922;28;20043;-57
2022/06/08 10:16:22;;;;;;;7.45;2.28;;;;;;;18.44;73.63;98570.19;5054303;28;20024;-52
2022/06/08 10:18:55;;;;;;;15.68;3.05;;;;;;;17.00;80.53;98586.91;5067526;28;20028;-55
2022/06/08 10:21:26;;;;;;;14.88;3.08;;;;;;;16.12;89.68;98567.84;5060880;28;20025;-52
2022/06/08 10:23:57;;;;;;;15.27;2.88;;;;;;;16.17;89.17;98570.50;5048929;28;20036;-51
2022/06/08 10:27:00;;;;;;;11.23;3.22;;;;;;;16.62;92.73;98567.28;5049166;28;20028;-54
2022/06/08 10:29:30;;;;;;;14.80;2.95;;;;;;;16.31;91.05;98569.72;5044114;28;20055;-56
2022/06/08 10:32:04;;;;;;;7.50;2.70;;;;;;;16.27;87.16;98571.41;5046267;28;20453;-52
2022/06/08 10:34:31;;;;;;;13.23;2.72;;;;;;;16.27;87.83;98566.00;5068646;28;20032;-53
2022/06/08 10:37:05;;;;;;;7.22;2.17;;;;;;;16.04;86.90;98563.09;5044698;28;20404;-52
2022/06/08 10:39:31;;;;;;;8.05;2.75;;;;;;;16.23;87.74;98565.78;5065570;28;20021;-53
2022/06/08 10:44:58;;;;;;;5.50;2.70;;;;;;;16.80;89.92;98565.66;5066908;28;20463;-54
2022/06/08 10:47:30;;;;;;;9.93;2.55;;;;;;;16.88;87.87;98561.44;5033301;28;20040;-51
2022/06/08 10:50:03;;;;;;;8.07;2.72;;;;;;;17.24;88.86;98566.94;5051616;28;20036;-53
2022/06/08 10:52:43;;;;;;;12.32;3.17;;;;;;;17.31;86.03;98561.91;5064697;28;20449;-54
2022/06/08 10:55:15;;;;;;;7.88;2.85;;;;;;;17.33;88.48;98553.50;5066790;28;20025;-54
2022/06/08 10:58:04;;;;;;;10.68;2.67;;;;;;;17.51;86.95;98557.97;5067245;28;20120;-53
2022/06/08 11:01:02;;;;;;;11.20;2.70;;;;;;;18.19;83.13;98556.16;5055569;28;20131;-55
2022/06/08 11:03:33;;;;;;;9.95;2.83;;;;;;;17.71;86.53;98551.31;5037375;28;20052;-54
2022/06/08 11:05:59;;;;;;;9.60;2.30;;;;;;;17.59;84.79;98559.16;5067486;28;20025;-54
2022/06/08 11:08:25;;;;;;;8.05;2.67;;;;;;;18.24;87.79;98553.31;5049911;28;20052;-55
2022/06/08 11:10:54;;;;;;;8.07;2.38;;;;;;;18.50;82.80;98560.84;5046775;28;20044;-55
2022/06/08 11:13:22;;;;;;;9.65;2.30;;;;;;;18.26;82.21;98559.25;5070638;28;20033;-55
2022/06/08 11:16:06;;;;;;;10.50;2.60;;;;;;;18.64;84.96;98550.66;5068364;28;20021;-54
2022/06/08 11:18:56;;;;;;;7.53;2.67;;;;;;;18.75;83.83;98552.03;5070075;28;20455;-55
2022/06/08 11:21:41;;;;;;;8.02;2.33;;;;;;;18.57;85.30;98544.91;5064618;28;20161;-53
2022/06/08 11:24:23;;;;;;;6.70;2.35;;;;;;;18.74;83.30;98544.97;5069165;28;20498;-53
2022/06/08 11:27:29;;;;;;;11.68;2.50;;;;;;;18.32;83.84;98541.75;5052261;28;20059;-56
2022/06/08 11:30:01;;;;;;;7.13;2.60;;;;;;;18.43;84.41;98544.19;5069263;28;20024;-56
2022/06/08 11:32:32;;;;;;;8.45;2.60;;;;;;;18.64;82.42;98539.81;5070365;28;20089;-55
2022/06/08 11:35:01;;;;;;;12.35;2.67;;;;;;;18.22;82.35;98533.03;5069948;28;20462;-55
2022/06/08 11:37:42;;;;;;;6.95;2.40;;;;;;;18.18;80.25;98526.66;5070150;28;20040;-54
2022/06/08 11:40:27;;;;;;;8.90;2.90;;;;;;;17.96;83.48;98527.44;5069507;28;20044;-54
2022/06/08 11:43:19;;;;;;;7.38;2.38;;;;;;;18.25;83.97;98524.31;5046538;28;20044;-55
2022/06/08 11:45:47;;;;;;;9.02;2.72;;;;;;;18.03;86.30;98519.69;5065954;28;20037;-55
2022/06/08 11:48:13;;;;;;;6.70;2.70;;;;;;;18.55;86.07;98520.00;5070349;28;20059;-55
2022/06/08 11:50:45;;;;;;;11.45;3.45;;;;;;;18.42;85.03;98518.16;5051909;28;20698;-54
2022/06/08 11:53:20;;;;;;;9.05;2.80;;;;;;;18.09;85.88;98521.16;5065777;28;20033;-55
2022/06/08 11:56:14;;;;;;;9.90;2.63;;;;;;;18.07;83.91;98520.66;5067375;28;20370;-54
2022/06/08 11:58:44;;;;;;;8.10;2.30;;;;;;;17.69;81.22;98523.69;5068534;28;20059;-55
2022/06/08 12:01:17;;;;;;;10.02;2.80;;;;;;;17.72;81.81;98517.66;5059212;28;20370;-55